sensor_id;sensor_type;location;lat;lon;timestamp;temperature;humidity
51637;DHT22;37713;53.254;6.460;2023-11-25T00:00:24;5.00;99.90
51637;DHT22;37713;53.254;6.460;2023-11-25T00:02:53;5.10;99.90
51637;DHT22;37713;53.254;6.460;2023-11-25T00:05:19;5.00;99.90
51637;DHT22;37713;53.254;6.460;2023-11-25T00:07:45;5.00;99.90
51637;DHT22;37713;53.254;6.460;2023-11-25T00:10:11;5.00;99.90
51637;DHT22;37713;53.254;6.460;2023-11-25T00:12:38;4.90;99.90
51637;DHT22;37713;53.254;6.460;2023-11-25T00:15:04;4.90;99.90
51637;DHT22;37713;53.254;6.460;2023-11-25T00:17:30;4.80;99.90
51637;DHT22;37713;53.254;6.460;2023-11-25T00:20:00;4.70;99.90
51637;DHT22;37713;53.254;6.460;2023-11-25T00:22:26;4.80;99.90
51637;DHT22;37713;53.254;6.460;2023-11-25T00:24:52;4.70;99.90
51637;DHT22;37713;53.254;6.460;2023-11-25T00:27:18;4.70;99.90
51637;DHT22;37713;53.254;6.460;2023-11-25T00:29:44;4.80;99.90
51637;DHT22;37713;53.254;6.460;2023-11-25T00:32:10;5.00;99.90
51637;DHT22;37713;53.254;6.460;2023-11-25T00:34:36;5.10;99.90
51637;DHT22;37713;53.254;6.460;2023-11-25T00:37:05;5.10;99.90
51637;DHT22;37713;53.254;6.460;2023-11-25T00:39:31;5.10;99.90
51637;DHT22;37713;53.254;6.460;2023-11-25T00:41:57;5.10;99.90
51637;DHT22;37713;53.254;6.460;2023-11-25T00:44:23;5.00;99.90
51637;DHT22;37713;53.254;6.460;2023-11-25T00:46:52;5.00;99.90
51637;DHT22;37713;53.254;6.460;2023-11-25T00:49:17;4.90;99.90
51637;DHT22;37713;53.254;6.460;2023-11-25T00:51:45;4.90;99.90
51637;DHT22;37713;53.254;6.460;2023-11-25T00:54:10;4.80;99.90
51637;DHT22;37713;53.254;6.460;2023-11-25T00:56:36;4.60;99.90
51637;DHT22;37713;53.254;6.460;2023-11-25T00:59:02;4.60;99.90
51637;DHT22;37713;53.254;6.460;2023-11-25T01:01:28;4.50;99.90
51637;DHT22;37713;53.254;6.460;2023-11-25T01:03:53;4.40;99.90
51637;DHT22;37713;53.254;6.460;2023-11-25T01:06:19;4.40;99.90
51637;DHT22;37713;53.254;6.460;2023-11-25T01:08:48;4.30;99.90
51637;DHT22;37713;53.254;6.460;2023-11-25T01:11:16;4.20;99.90
51637;DHT22;37713;53.254;6.460;2023-11-25T01:13:42;4.10;99.90
51637;DHT22;37713;53.254;6.460;2023-11-25T01:16:17;4.10;99.90
51637;DHT22;37713;53.254;6.460;2023-11-25T01:18:46;4.10;99.90
51637;DHT22;37713;53.254;6.460;2023-11-25T01:21:13;4.20;99.90
51637;DHT22;37713;53.254;6.460;2023-11-25T01:23:39;4.50;99.90
51637;DHT22;37713;53.254;6.460;2023-11-25T01:26:04;4.60;99.90
51637;DHT22;37713;53.254;6.460;2023-11-25T01:28:31;4.70;99.90
51637;DHT22;37713;53.254;6.460;2023-11-25T01:31:03;4.70;99.90
51637;DHT22;37713;53.254;6.460;2023-11-25T01:33:30;4.80;99.90
51637;DHT22;37713;53.254;6.460;2023-11-25T01:35:57;4.80;99.90
51637;DHT22;37713;53.254;6.460;2023-11-25T01:38:22;4.80;99.90
51637;DHT22;37713;53.254;6.460;2023-11-25T01:40:48;4.80;99.90
51637;DHT22;37713;53.254;6.460;2023-11-25T01:43:19;4.70;99.90
51637;DHT22;37713;53.254;6.460;2023-11-25T01:45:52;4.70;99.90
51637;DHT22;37713;53.254;6.460;2023-11-25T01:48:20;4.70;99.90
51637;DHT22;37713;53.254;6.460;2023-11-25T01:50:49;4.70;99.90
51637;DHT22;37713;53.254;6.460;2023-11-25T01:53:16;4.70;99.90
51637;DHT22;37713;53.254;6.460;2023-11-25T01:55:46;4.80;99.90
51637;DHT22;37713;53.254;6.460;2023-11-25T01:58:13;4.80;99.90
51637;DHT22;37713;53.254;6.460;2023-11-25T02:00:43;4.80;99.90
51637;DHT22;37713;53.254;6.460;2023-11-25T02:03:11;4.80;99.90
51637;DHT22;37713;53.254;6.460;2023-11-25T02:05:37;4.80;99.90
51637;DHT22;37713;53.254;6.460;2023-11-25T02:08:04;4.80;99.90
51637;DHT22;37713;53.254;6.460;2023-11-25T02:10:33;4.70;99.90
51637;DHT22;37713;53.254;6.460;2023-11-25T02:12:59;4.60;99.90
51637;DHT22;37713;53.254;6.460;2023-11-25T02:15:30;4.60;99.90
51637;DHT22;37713;53.254;6.460;2023-11-25T02:17:56;4.50;99.90
51637;DHT22;37713;53.254;6.460;2023-11-25T02:20:38;4.50;99.90
51637;DHT22;37713;53.254;6.460;2023-11-25T02:23:18;4.50;99.90
51637;DHT22;37713;53.254;6.460;2023-11-25T02:25:48;4.40;99.90
51637;DHT22;37713;53.254;6.460;2023-11-25T02:28:15;4.40;99.90
51637;DHT22;37713;53.254;6.460;2023-11-25T02:30:41;4.50;99.90
51637;DHT22;37713;53.254;6.460;2023-11-25T02:33:09;4.50;99.90
51637;DHT22;37713;53.254;6.460;2023-11-25T02:35:37;4.60;99.90
51637;DHT22;37713;53.254;6.460;2023-11-25T02:38:03;4.70;99.90
51637;DHT22;37713;53.254;6.460;2023-11-25T02:40:31;4.70;99.90
51637;DHT22;37713;53.254;6.460;2023-11-25T02:42:56;4.80;99.90
51637;DHT22;37713;53.254;6.460;2023-11-25T02:45:23;4.70;99.90
51637;DHT22;37713;53.254;6.460;2023-11-25T02:47:49;4.70;99.90
51637;DHT22;37713;53.254;6.460;2023-11-25T02:50:17;4.70;99.90
51637;DHT22;37713;53.254;6.460;2023-11-25T02:52:44;4.60;99.90
51637;DHT22;37713;53.254;6.460;2023-11-25T02:55:10;4.50;99.90
51637;DHT22;37713;53.254;6.460;2023-11-25T02:57:40;4.40;99.90
51637;DHT22;37713;53.254;6.460;2023-11-25T03:00:11;4.30;99.90
51637;DHT22;37713;53.254;6.460;2023-11-25T03:02:55;4.20;99.90
51637;DHT22;37713;53.254;6.460;2023-11-25T03:05:38;4.30;99.90
51637;DHT22;37713;53.254;6.460;2023-11-25T03:08:08;4.30;99.90
51637;DHT22;37713;53.254;6.460;2023-11-25T03:10:36;4.40;99.90
51637;DHT22;37713;53.254;6.460;2023-11-25T03:13:02;4.40;99.90
51637;DHT22;37713;53.254;6.460;2023-11-25T03:15:28;4.30;99.90
51637;DHT22;37713;53.254;6.460;2023-11-25T03:17:54;4.30;99.90
51637;DHT22;37713;53.254;6.460;2023-11-25T03:20:19;4.30;99.90
51637;DHT22;37713;53.254;6.460;2023-11-25T03:22:45;4.40;99.90
51637;DHT22;37713;53.254;6.460;2023-11-25T03:25:11;4.40;99.90
51637;DHT22;37713;53.254;6.460;2023-11-25T03:27:39;4.50;99.90
51637;DHT22;37713;53.254;6.460;2023-11-25T03:30:05;4.50;99.90
51637;DHT22;37713;53.254;6.460;2023-11-25T03:32:37;4.50;99.90
51637;DHT22;37713;53.254;6.460;2023-11-25T03:35:03;4.50;99.90
51637;DHT22;37713;53.254;6.460;2023-11-25T03:37:29;4.40;99.90
51637;DHT22;37713;53.254;6.460;2023-11-25T03:39:55;4.40;99.90
51637;DHT22;37713;53.254;6.460;2023-11-25T03:42:21;4.40;99.90
51637;DHT22;37713;53.254;6.460;2023-11-25T03:44:47;4.40;99.90
51637;DHT22;37713;53.254;6.460;2023-11-25T03:47:13;4.30;99.90
51637;DHT22;37713;53.254;6.460;2023-11-25T03:49:39;4.30;99.90
51637;DHT22;37713;53.254;6.460;2023-11-25T03:52:05;4.30;99.90
51637;DHT22;37713;53.254;6.460;2023-11-25T03:54:32;4.20;99.90
51637;DHT22;37713;53.254;6.460;2023-11-25T03:57:00;4.20;99.90
51637;DHT22;37713;53.254;6.460;2023-11-25T03:59:26;4.40;99.90
51637;DHT22;37713;53.254;6.460;2023-11-25T04:01:52;4.40;99.90
51637;DHT22;37713;53.254;6.460;2023-11-25T04:04:21;4.40;99.90
51637;DHT22;37713;53.254;6.460;2023-11-25T04:06:47;4.50;99.90
51637;DHT22;37713;53.254;6.460;2023-11-25T04:09:13;4.50;99.90
51637;DHT22;37713;53.254;6.460;2023-11-25T04:11:42;4.60;99.90
51637;DHT22;37713;53.254;6.460;2023-11-25T04:14:08;4.60;99.90
51637;DHT22;37713;53.254;6.460;2023-11-25T04:16:34;4.60;99.90
51637;DHT22;37713;53.254;6.460;2023-11-25T04:19:00;4.60;99.90
51637;DHT22;37713;53.254;6.460;2023-11-25T04:21:25;4.50;99.90
51637;DHT22;37713;53.254;6.460;2023-11-25T04:23:52;4.40;99.90
51637;DHT22;37713;53.254;6.460;2023-11-25T04:26:22;4.50;99.90
51637;DHT22;37713;53.254;6.460;2023-11-25T04:28:48;4.50;99.90
51637;DHT22;37713;53.254;6.460;2023-11-25T04:31:16;4.60;99.90
51637;DHT22;37713;53.254;6.460;2023-11-25T04:33:42;4.70;99.90
51637;DHT22;37713;53.254;6.460;2023-11-25T04:36:09;4.70;99.90
51637;DHT22;37713;53.254;6.460;2023-11-25T04:38:37;4.70;99.90
51637;DHT22;37713;53.254;6.460;2023-11-25T04:41:03;4.80;99.90
51637;DHT22;37713;53.254;6.460;2023-11-25T04:43:29;4.90;99.90
51637;DHT22;37713;53.254;6.460;2023-11-25T04:45:55;5.00;99.90
51637;DHT22;37713;53.254;6.460;2023-11-25T04:48:22;5.10;99.90
51637;DHT22;37713;53.254;6.460;2023-11-25T04:50:50;5.20;99.90
51637;DHT22;37713;53.254;6.460;2023-11-25T04:53:16;5.30;99.90
51637;DHT22;37713;53.254;6.460;2023-11-25T04:55:42;5.40;99.90
51637;DHT22;37713;53.254;6.460;2023-11-25T04:58:07;5.50;99.90
51637;DHT22;37713;53.254;6.460;2023-11-25T05:00:33;5.40;99.90
51637;DHT22;37713;53.254;6.460;2023-11-25T05:03:00;5.40;99.90
51637;DHT22;37713;53.254;6.460;2023-11-25T05:05:26;5.30;99.90
51637;DHT22;37713;53.254;6.460;2023-11-25T05:07:52;5.20;99.90
51637;DHT22;37713;53.254;6.460;2023-11-25T05:10:17;5.10;99.90
51637;DHT22;37713;53.254;6.460;2023-11-25T05:12:46;4.90;99.90
51637;DHT22;37713;53.254;6.460;2023-11-25T05:15:15;4.80;99.90
51637;DHT22;37713;53.254;6.460;2023-11-25T05:17:44;4.60;99.90
51637;DHT22;37713;53.254;6.460;2023-11-25T05:20:10;4.50;99.90
51637;DHT22;37713;53.254;6.460;2023-11-25T05:22:39;4.40;99.90
51637;DHT22;37713;53.254;6.460;2023-11-25T05:25:05;4.30;99.90
51637;DHT22;37713;53.254;6.460;2023-11-25T05:27:31;4.20;99.90
51637;DHT22;37713;53.254;6.460;2023-11-25T05:29:57;4.20;99.90
51637;DHT22;37713;53.254;6.460;2023-11-25T05:32:23;4.10;99.90
51637;DHT22;37713;53.254;6.460;2023-11-25T05:34:48;4.20;99.90
51637;DHT22;37713;53.254;6.460;2023-11-25T05:37:15;4.20;99.90
51637;DHT22;37713;53.254;6.460;2023-11-25T05:39:41;4.30;99.90
51637;DHT22;37713;53.254;6.460;2023-11-25T05:42:07;4.30;99.90
51637;DHT22;37713;53.254;6.460;2023-11-25T05:44:33;4.40;99.90
51637;DHT22;37713;53.254;6.460;2023-11-25T05:46:59;4.40;99.90
51637;DHT22;37713;53.254;6.460;2023-11-25T05:49:27;4.50;99.90
51637;DHT22;37713;53.254;6.460;2023-11-25T05:51:56;4.60;99.90
51637;DHT22;37713;53.254;6.460;2023-11-25T05:54:21;4.90;99.90
51637;DHT22;37713;53.254;6.460;2023-11-25T05:56:48;4.90;99.90
51637;DHT22;37713;53.254;6.460;2023-11-25T05:59:15;5.00;99.90
51637;DHT22;37713;53.254;6.460;2023-11-25T06:01:43;5.10;99.90
51637;DHT22;37713;53.254;6.460;2023-11-25T06:04:09;5.10;99.90
51637;DHT22;37713;53.254;6.460;2023-11-25T06:06:35;5.10;99.90
51637;DHT22;37713;53.254;6.460;2023-11-25T06:09:01;5.10;99.90
51637;DHT22;37713;53.254;6.460;2023-11-25T06:11:27;5.00;99.90
51637;DHT22;37713;53.254;6.460;2023-11-25T06:13:58;5.00;99.90
51637;DHT22;37713;53.254;6.460;2023-11-25T06:16:24;5.00;99.90
51637;DHT22;37713;53.254;6.460;2023-11-25T06:18:53;5.00;99.90
51637;DHT22;37713;53.254;6.460;2023-11-25T06:21:22;5.20;99.90
51637;DHT22;37713;53.254;6.460;2023-11-25T06:23:52;5.30;99.90
51637;DHT22;37713;53.254;6.460;2023-11-25T06:26:17;5.30;99.90
51637;DHT22;37713;53.254;6.460;2023-11-25T06:28:46;5.30;99.90
51637;DHT22;37713;53.254;6.460;2023-11-25T06:31:13;5.30;99.90
51637;DHT22;37713;53.254;6.460;2023-11-25T06:33:40;5.30;99.90
51637;DHT22;37713;53.254;6.460;2023-11-25T06:36:10;5.20;99.90
51637;DHT22;37713;53.254;6.460;2023-11-25T06:38:36;5.10;99.90
51637;DHT22;37713;53.254;6.460;2023-11-25T06:41:02;5.10;99.90
51637;DHT22;37713;53.254;6.460;2023-11-25T06:43:28;5.10;99.90
51637;DHT22;37713;53.254;6.460;2023-11-25T06:45:55;5.20;99.90
51637;DHT22;37713;53.254;6.460;2023-11-25T06:48:23;5.30;99.90
51637;DHT22;37713;53.254;6.460;2023-11-25T06:50:52;5.40;99.90
51637;DHT22;37713;53.254;6.460;2023-11-25T06:53:18;5.30;99.90
51637;DHT22;37713;53.254;6.460;2023-11-25T06:55:44;5.30;99.90
51637;DHT22;37713;53.254;6.460;2023-11-25T06:58:13;5.20;99.90
51637;DHT22;37713;53.254;6.460;2023-11-25T07:00:43;5.10;99.90
51637;DHT22;37713;53.254;6.460;2023-11-25T07:03:12;5.00;99.90
51637;DHT22;37713;53.254;6.460;2023-11-25T07:05:37;5.10;99.90
51637;DHT22;37713;53.254;6.460;2023-11-25T07:08:04;5.10;99.90
51637;DHT22;37713;53.254;6.460;2023-11-25T07:10:30;5.20;99.90
51637;DHT22;37713;53.254;6.460;2023-11-25T07:13:03;5.30;99.90
51637;DHT22;37713;53.254;6.460;2023-11-25T07:15:29;5.20;99.90
51637;DHT22;37713;53.254;6.460;2023-11-25T07:17:55;5.20;99.90
51637;DHT22;37713;53.254;6.460;2023-11-25T07:20:21;5.20;99.90
51637;DHT22;37713;53.254;6.460;2023-11-25T07:22:47;5.20;99.90
51637;DHT22;37713;53.254;6.460;2023-11-25T07:25:16;5.20;99.90
51637;DHT22;37713;53.254;6.460;2023-11-25T07:27:44;5.20;99.90
51637;DHT22;37713;53.254;6.460;2023-11-25T07:30:11;5.20;99.90
51637;DHT22;37713;53.254;6.460;2023-11-25T07:32:38;5.20;99.90
51637;DHT22;37713;53.254;6.460;2023-11-25T07:35:04;5.30;99.90
51637;DHT22;37713;53.254;6.460;2023-11-25T07:37:36;5.40;99.90
51637;DHT22;37713;53.254;6.460;2023-11-25T07:40:03;5.40;99.90
51637;DHT22;37713;53.254;6.460;2023-11-25T07:42:29;5.40;99.90
51637;DHT22;37713;53.254;6.460;2023-11-25T07:44:55;5.40;99.90
51637;DHT22;37713;53.254;6.460;2023-11-25T07:47:21;5.40;99.90
51637;DHT22;37713;53.254;6.460;2023-11-25T07:49:47;5.40;99.90
51637;DHT22;37713;53.254;6.460;2023-11-25T07:52:14;5.50;99.90
51637;DHT22;37713;53.254;6.460;2023-11-25T07:54:41;5.50;99.90
51637;DHT22;37713;53.254;6.460;2023-11-25T07:57:07;5.50;99.90
51637;DHT22;37713;53.254;6.460;2023-11-25T07:59:34;5.50;99.90
51637;DHT22;37713;53.254;6.460;2023-11-25T08:02:00;5.50;99.90
51637;DHT22;37713;53.254;6.460;2023-11-25T08:04:28;5.50;99.90
51637;DHT22;37713;53.254;6.460;2023-11-25T08:06:55;5.60;99.90
51637;DHT22;37713;53.254;6.460;2023-11-25T08:09:21;5.70;99.90
51637;DHT22;37713;53.254;6.460;2023-11-25T08:11:47;5.80;99.90
51637;DHT22;37713;53.254;6.460;2023-11-25T08:14:13;5.90;99.90
51637;DHT22;37713;53.254;6.460;2023-11-25T08:16:39;6.00;99.90
51637;DHT22;37713;53.254;6.460;2023-11-25T08:19:05;5.90;99.90
51637;DHT22;37713;53.254;6.460;2023-11-25T08:21:31;5.80;99.90
51637;DHT22;37713;53.254;6.460;2023-11-25T08:23:56;5.70;99.90
51637;DHT22;37713;53.254;6.460;2023-11-25T08:26:25;5.60;99.90
51637;DHT22;37713;53.254;6.460;2023-11-25T08:28:52;5.60;99.90
51637;DHT22;37713;53.254;6.460;2023-11-25T08:31:19;5.60;99.90
51637;DHT22;37713;53.254;6.460;2023-11-25T08:33:45;5.50;99.90
51637;DHT22;37713;53.254;6.460;2023-11-25T08:36:12;5.50;99.90
51637;DHT22;37713;53.254;6.460;2023-11-25T08:38:41;5.50;99.90
51637;DHT22;37713;53.254;6.460;2023-11-25T08:41:07;5.50;99.90
51637;DHT22;37713;53.254;6.460;2023-11-25T08:43:42;5.50;99.90
51637;DHT22;37713;53.254;6.460;2023-11-25T08:46:11;5.40;99.90
51637;DHT22;37713;53.254;6.460;2023-11-25T08:48:39;5.40;99.90
51637;DHT22;37713;53.254;6.460;2023-11-25T08:51:07;5.30;99.90
51637;DHT22;37713;53.254;6.460;2023-11-25T08:53:39;5.40;99.90
51637;DHT22;37713;53.254;6.460;2023-11-25T08:56:05;5.40;99.90
51637;DHT22;37713;53.254;6.460;2023-11-25T08:58:32;5.50;99.90
51637;DHT22;37713;53.254;6.460;2023-11-25T09:00:58;5.70;99.90
51637;DHT22;37713;53.254;6.460;2023-11-25T09:03:24;5.90;99.90
51637;DHT22;37713;53.254;6.460;2023-11-25T09:05:50;6.10;99.90
51637;DHT22;37713;53.254;6.460;2023-11-25T09:08:16;6.20;99.90
51637;DHT22;37713;53.254;6.460;2023-11-25T09:10:45;6.20;99.90
51637;DHT22;37713;53.254;6.460;2023-11-25T09:13:11;6.20;99.90
51637;DHT22;37713;53.254;6.460;2023-11-25T09:15:39;6.10;99.90
51637;DHT22;37713;53.254;6.460;2023-11-25T09:18:05;6.10;99.90
51637;DHT22;37713;53.254;6.460;2023-11-25T09:20:33;6.10;99.90
51637;DHT22;37713;53.254;6.460;2023-11-25T09:23:04;6.00;99.90
51637;DHT22;37713;53.254;6.460;2023-11-25T09:25:30;6.00;99.90
51637;DHT22;37713;53.254;6.460;2023-11-25T09:27:56;6.00;99.90
51637;DHT22;37713;53.254;6.460;2023-11-25T09:30:25;6.00;99.90
51637;DHT22;37713;53.254;6.460;2023-11-25T09:32:51;6.00;99.90
51637;DHT22;37713;53.254;6.460;2023-11-25T09:35:19;6.00;99.90
51637;DHT22;37713;53.254;6.460;2023-11-25T09:37:47;5.90;99.90
51637;DHT22;37713;53.254;6.460;2023-11-25T09:40:14;5.90;99.90
51637;DHT22;37713;53.254;6.460;2023-11-25T09:42:41;5.90;99.90
51637;DHT22;37713;53.254;6.460;2023-11-25T09:45:13;5.90;99.90
51637;DHT22;37713;53.254;6.460;2023-11-25T09:47:41;6.00;99.90
51637;DHT22;37713;53.254;6.460;2023-11-25T09:50:11;6.00;99.90
51637;DHT22;37713;53.254;6.460;2023-11-25T09:52:48;6.10;99.90
51637;DHT22;37713;53.254;6.460;2023-11-25T09:55:16;6.30;99.90
51637;DHT22;37713;53.254;6.460;2023-11-25T09:57:49;6.40;99.90
51637;DHT22;37713;53.254;6.460;2023-11-25T10:00:18;6.40;99.90
51637;DHT22;37713;53.254;6.460;2023-11-25T10:02:51;6.40;99.90
51637;DHT22;37713;53.254;6.460;2023-11-25T10:05:23;6.40;99.90
51637;DHT22;37713;53.254;6.460;2023-11-25T10:07:48;6.40;99.90
51637;DHT22;37713;53.254;6.460;2023-11-25T10:10:14;6.30;99.90
51637;DHT22;37713;53.254;6.460;2023-11-25T10:12:49;6.40;99.90
51637;DHT22;37713;53.254;6.460;2023-11-25T10:15:19;6.40;99.90
51637;DHT22;37713;53.254;6.460;2023-11-25T10:17:45;6.40;99.90
51637;DHT22;37713;53.254;6.460;2023-11-25T10:20:11;6.40;99.90
51637;DHT22;37713;53.254;6.460;2023-11-25T10:22:49;6.50;99.90
51637;DHT22;37713;53.254;6.460;2023-11-25T10:25:19;6.60;99.90
51637;DHT22;37713;53.254;6.460;2023-11-25T10:27:46;6.60;99.90
51637;DHT22;37713;53.254;6.460;2023-11-25T10:30:13;6.70;99.90
51637;DHT22;37713;53.254;6.460;2023-11-25T10:32:40;6.80;99.90
51637;DHT22;37713;53.254;6.460;2023-11-25T10:35:06;7.00;99.90
51637;DHT22;37713;53.254;6.460;2023-11-25T10:37:38;7.10;99.90
51637;DHT22;37713;53.254;6.460;2023-11-25T10:40:09;7.20;99.90
51637;DHT22;37713;53.254;6.460;2023-11-25T10:42:35;7.40;99.90
51637;DHT22;37713;53.254;6.460;2023-11-25T10:45:02;7.40;99.90
51637;DHT22;37713;53.254;6.460;2023-11-25T10:47:31;7.40;99.90
51637;DHT22;37713;53.254;6.460;2023-11-25T10:49:59;7.40;99.90
51637;DHT22;37713;53.254;6.460;2023-11-25T10:52:32;7.40;99.90
51637;DHT22;37713;53.254;6.460;2023-11-25T10:54:59;7.40;99.90
51637;DHT22;37713;53.254;6.460;2023-11-25T10:57:26;7.40;99.90
51637;DHT22;37713;53.254;6.460;2023-11-25T10:59:56;7.40;99.90
51637;DHT22;37713;53.254;6.460;2023-11-25T11:02:43;7.50;99.90
51637;DHT22;37713;53.254;6.460;2023-11-25T11:05:09;7.50;99.90
51637;DHT22;37713;53.254;6.460;2023-11-25T11:07:46;7.60;99.90
51637;DHT22;37713;53.254;6.460;2023-11-25T11:10:29;7.60;99.90
51637;DHT22;37713;53.254;6.460;2023-11-25T11:13:06;7.60;99.90
51637;DHT22;37713;53.254;6.460;2023-11-25T11:15:34;7.70;99.90
51637;DHT22;37713;53.254;6.460;2023-11-25T11:20:44;7.60;99.90
51637;DHT22;37713;53.254;6.460;2023-11-25T11:23:16;7.50;99.90
51637;DHT22;37713;53.254;6.460;2023-11-25T11:32:21;7.40;99.90
51637;DHT22;37713;53.254;6.460;2023-11-25T11:34:16;7.40;99.90
51637;DHT22;37713;53.254;6.460;2023-11-25T11:36:42;7.60;99.90
51637;DHT22;37713;53.254;6.460;2023-11-25T11:39:10;7.60;99.90
51637;DHT22;37713;53.254;6.460;2023-11-25T11:41:43;7.80;99.90
51637;DHT22;37713;53.254;6.460;2023-11-25T11:44:12;7.80;99.90
51637;DHT22;37713;53.254;6.460;2023-11-25T11:46:41;7.80;99.90
51637;DHT22;37713;53.254;6.460;2023-11-25T11:49:10;7.70;99.90
51637;DHT22;37713;53.254;6.460;2023-11-25T11:51:36;7.60;99.90
51637;DHT22;37713;53.254;6.460;2023-11-25T11:56:59;7.40;99.90
51637;DHT22;37713;53.254;6.460;2023-11-25T12:00:00;7.30;99.90
51637;DHT22;37713;53.254;6.460;2023-11-25T12:02:30;7.20;99.90
51637;DHT22;37713;53.254;6.460;2023-11-25T12:05:00;7.20;99.90
51637;DHT22;37713;53.254;6.460;2023-11-25T12:07:28;7.10;99.90
51637;DHT22;37713;53.254;6.460;2023-11-25T12:09:55;7.00;99.90
51637;DHT22;37713;53.254;6.460;2023-11-25T12:12:22;6.90;99.90
51637;DHT22;37713;53.254;6.460;2023-11-25T12:14:50;6.80;99.90
51637;DHT22;37713;53.254;6.460;2023-11-25T12:17:17;6.70;99.90
51637;DHT22;37713;53.254;6.460;2023-11-25T12:19:43;6.60;99.90
51637;DHT22;37713;53.254;6.460;2023-11-25T12:22:10;6.50;99.90
51637;DHT22;37713;53.254;6.460;2023-11-25T12:24:39;6.50;99.90
51637;DHT22;37713;53.254;6.460;2023-11-25T12:27:06;6.40;99.90
51637;DHT22;37713;53.254;6.460;2023-11-25T12:29:34;6.40;99.90
51637;DHT22;37713;53.254;6.460;2023-11-25T12:32:00;6.50;99.90
51637;DHT22;37713;53.254;6.460;2023-11-25T12:34:26;6.60;99.90
51637;DHT22;37713;53.254;6.460;2023-11-25T12:36:52;6.70;99.90
51637;DHT22;37713;53.254;6.460;2023-11-25T12:39:18;6.80;99.90
51637;DHT22;37713;53.254;6.460;2023-11-25T12:41:44;6.80;99.90
51637;DHT22;37713;53.254;6.460;2023-11-25T12:44:10;6.90;99.90
51637;DHT22;37713;53.254;6.460;2023-11-25T12:46:40;7.00;99.90
51637;DHT22;37713;53.254;6.460;2023-11-25T12:49:23;7.10;99.90
51637;DHT22;37713;53.254;6.460;2023-11-25T12:51:51;7.10;99.90
51637;DHT22;37713;53.254;6.460;2023-11-25T12:54:21;7.20;99.90
51637;DHT22;37713;53.254;6.460;2023-11-25T12:56:54;7.20;99.90
51637;DHT22;37713;53.254;6.460;2023-11-25T12:59:23;7.10;99.90
51637;DHT22;37713;53.254;6.460;2023-11-25T13:01:50;7.10;99.90
51637;DHT22;37713;53.254;6.460;2023-11-25T13:04:15;7.10;99.90
51637;DHT22;37713;53.254;6.460;2023-11-25T13:06:47;7.10;99.90
51637;DHT22;37713;53.254;6.460;2023-11-25T13:09:13;7.10;99.90
51637;DHT22;37713;53.254;6.460;2023-11-25T13:11:43;7.10;99.90
51637;DHT22;37713;53.254;6.460;2023-11-25T13:14:09;7.10;99.90
51637;DHT22;37713;53.254;6.460;2023-11-25T13:16:35;7.10;99.90
51637;DHT22;37713;53.254;6.460;2023-11-25T13:19:01;7.00;99.90
51637;DHT22;37713;53.254;6.460;2023-11-25T13:21:28;7.00;99.90
51637;DHT22;37713;53.254;6.460;2023-11-25T13:23:54;7.00;99.90
51637;DHT22;37713;53.254;6.460;2023-11-25T13:26:20;6.90;99.90
51637;DHT22;37713;53.254;6.460;2023-11-25T13:28:45;6.80;99.90
51637;DHT22;37713;53.254;6.460;2023-11-25T13:31:11;6.70;99.90
51637;DHT22;37713;53.254;6.460;2023-11-25T13:33:37;6.40;99.90
51637;DHT22;37713;53.254;6.460;2023-11-25T13:36:03;6.10;99.90
51637;DHT22;37713;53.254;6.460;2023-11-25T13:38:29;5.90;99.90
51637;DHT22;37713;53.254;6.460;2023-11-25T13:40:55;5.80;99.90
51637;DHT22;37713;53.254;6.460;2023-11-25T13:43:20;5.70;99.90
51637;DHT22;37713;53.254;6.460;2023-11-25T13:45:46;5.70;99.90
51637;DHT22;37713;53.254;6.460;2023-11-25T13:48:12;5.60;99.90
51637;DHT22;37713;53.254;6.460;2023-11-25T13:50:42;5.70;99.90
51637;DHT22;37713;53.254;6.460;2023-11-25T13:53:08;5.60;99.90
51637;DHT22;37713;53.254;6.460;2023-11-25T13:55:33;5.70;99.90
51637;DHT22;37713;53.254;6.460;2023-11-25T13:58:10;5.60;99.90
51637;DHT22;37713;53.254;6.460;2023-11-25T14:00:37;5.60;99.90
51637;DHT22;37713;53.254;6.460;2023-11-25T14:03:04;5.60;99.90
51637;DHT22;37713;53.254;6.460;2023-11-25T14:05:38;5.60;99.90
51637;DHT22;37713;53.254;6.460;2023-11-25T14:08:11;5.60;99.90
51637;DHT22;37713;53.254;6.460;2023-11-25T14:10:48;5.60;99.90
51637;DHT22;37713;53.254;6.460;2023-11-25T14:13:13;5.60;99.90
51637;DHT22;37713;53.254;6.460;2023-11-25T14:15:41;5.60;99.90
51637;DHT22;37713;53.254;6.460;2023-11-25T14:18:07;5.60;99.90
51637;DHT22;37713;53.254;6.460;2023-11-25T14:20:34;5.60;99.90
51637;DHT22;37713;53.254;6.460;2023-11-25T14:23:00;5.60;99.90
51637;DHT22;37713;53.254;6.460;2023-11-25T14:25:27;5.60;99.90
51637;DHT22;37713;53.254;6.460;2023-11-25T14:27:54;5.60;99.90
51637;DHT22;37713;53.254;6.460;2023-11-25T14:30:21;5.50;99.90
51637;DHT22;37713;53.254;6.460;2023-11-25T14:32:51;5.50;99.90
51637;DHT22;37713;53.254;6.460;2023-11-25T14:35:18;5.40;99.90
51637;DHT22;37713;53.254;6.460;2023-11-25T14:37:44;5.30;99.90
51637;DHT22;37713;53.254;6.460;2023-11-25T14:40:11;5.20;99.90
51637;DHT22;37713;53.254;6.460;2023-11-25T14:42:38;5.20;99.90
51637;DHT22;37713;53.254;6.460;2023-11-25T14:45:05;5.10;99.90
51637;DHT22;37713;53.254;6.460;2023-11-25T14:47:35;5.10;99.90
51637;DHT22;37713;53.254;6.460;2023-11-25T14:50:02;5.10;99.90
51637;DHT22;37713;53.254;6.460;2023-11-25T14:52:28;5.00;99.90
51637;DHT22;37713;53.254;6.460;2023-11-25T14:54:54;5.00;99.90
51637;DHT22;37713;53.254;6.460;2023-11-25T14:57:21;4.90;99.90
51637;DHT22;37713;53.254;6.460;2023-11-25T14:59:46;4.90;99.90
51637;DHT22;37713;53.254;6.460;2023-11-25T15:02:12;4.80;99.90
51637;DHT22;37713;53.254;6.460;2023-11-25T15:04:38;4.80;99.90
51637;DHT22;37713;53.254;6.460;2023-11-25T15:07:04;4.80;99.90
51637;DHT22;37713;53.254;6.460;2023-11-25T15:09:30;4.70;99.90
51637;DHT22;37713;53.254;6.460;2023-11-25T15:11:56;4.60;99.90
51637;DHT22;37713;53.254;6.460;2023-11-25T15:14:24;4.60;99.90
51637;DHT22;37713;53.254;6.460;2023-11-25T15:16:52;4.60;99.90
51637;DHT22;37713;53.254;6.460;2023-11-25T15:19:18;4.50;99.90
51637;DHT22;37713;53.254;6.460;2023-11-25T15:21:44;4.40;99.90
51637;DHT22;37713;53.254;6.460;2023-11-25T15:24:10;4.40;99.90
51637;DHT22;37713;53.254;6.460;2023-11-25T15:26:40;4.40;99.90
51637;DHT22;37713;53.254;6.460;2023-11-25T15:29:09;4.30;99.90
51637;DHT22;37713;53.254;6.460;2023-11-25T15:31:37;4.30;99.90
51637;DHT22;37713;53.254;6.460;2023-11-25T15:34:03;4.30;99.90
51637;DHT22;37713;53.254;6.460;2023-11-25T15:36:29;4.20;99.90
51637;DHT22;37713;53.254;6.460;2023-11-25T15:38:54;4.20;99.90
51637;DHT22;37713;53.254;6.460;2023-11-25T15:41:20;4.20;99.90
51637;DHT22;37713;53.254;6.460;2023-11-25T15:43:46;4.10;99.90
51637;DHT22;37713;53.254;6.460;2023-11-25T15:46:14;4.10;99.90
51637;DHT22;37713;53.254;6.460;2023-11-25T15:48:39;4.10;99.90
51637;DHT22;37713;53.254;6.460;2023-11-25T15:51:06;4.00;99.90
51637;DHT22;37713;53.254;6.460;2023-11-25T15:53:34;4.00;99.90
51637;DHT22;37713;53.254;6.460;2023-11-25T15:56:01;4.00;99.90
51637;DHT22;37713;53.254;6.460;2023-11-25T15:58:27;4.00;99.90